Terminal Aerodrome Forecast
Issued by NWS Paducah, KY

Home | Current Version | Previous Version | Text Only | Print | Product List | Glossary On
Versions: 1 2 3 4 5 6 7 8 9 10 11 12 13 14
000
FTUS43 KPAH 231000 AAA
TAFPAH
TAF AMD
KPAH 231023Z 2310/2406 00000KT P6SM MIFG SKC
      TEMPO 2310/2313 2SM BR MIFG
     FM231400 VRB03KT P6SM SCT250
     FM240100 00000KT P6SM SCT250=

USA.gov is the U.S. government's official web portal to all federal, state and local government web resources and services.